Time;durP1;ratioP1;P1;durP2;ratioP2;P2;SDS_P1;SDS_P2;PMS_P1;PMS_P2;Temp;Humidity;BMP_temperature;BMP_pressure;BME280_temperature;BME280_humidity;BME280_pressure;Samples;Min_cycle;Max_cycle;Signal;HPM_P1;HPM_P2
2022/11/12 00:00:38;;;;;;;17.95;11.20;;;5.30;99.90;;;;;;5032686;28;20033;-65
2022/11/12 00:03:05;;;;;;;22.23;10.70;;;5.30;99.90;;;;;;5026667;28;20556;-64
2022/11/12 00:05:31;;;;;;;21.20;11.43;;;5.20;99.90;;;;;;5022428;28;20493;-65
2022/11/12 00:07:56;;;;;;;20.17;12.18;;;5.20;99.90;;;;;;5022435;28;20131;-64
2022/11/12 00:10:22;;;;;;;23.85;11.85;;;5.30;99.90;;;;;;5023496;28;20124;-65
2022/11/12 00:12:48;;;;;;;22.25;11.93;;;5.30;99.90;;;;;;5028221;28;20040;-64
2022/11/12 00:15:14;;;;;;;22.63;11.77;;;5.30;99.90;;;;;;5029750;28;20041;-64
2022/11/12 00:17:39;;;;;;;21.40;11.93;;;5.30;99.90;;;;;;5036737;28;20117;-65
2022/11/12 00:20:06;;;;;;;21.77;11.60;;;5.20;99.90;;;;;;5029819;28;20435;-64
2022/11/12 00:22:32;;;;;;;19.95;11.82;;;5.20;99.90;;;;;;5036783;28;20136;-64
2022/11/12 00:24:58;;;;;;;18.75;10.75;;;5.20;99.90;;;;;;5048069;28;20501;-64
2022/11/12 00:27:23;;;;;;;15.63;9.85;;;5.20;99.90;;;;;;5027792;28;20730;-65
2022/11/12 00:29:49;;;;;;;17.88;8.82;;;5.10;99.90;;;;;;5033914;28;20061;-64
2022/11/12 00:32:14;;;;;;;17.63;9.55;;;5.00;99.90;;;;;;5028861;28;20029;-65
2022/11/12 00:34:40;;;;;;;14.27;7.80;;;5.00;99.90;;;;;;5032133;28;20067;-64
2022/11/12 00:37:06;;;;;;;13.30;7.95;;;4.90;99.90;;;;;;5046998;28;20044;-64
2022/11/12 00:39:31;;;;;;;10.80;7.68;;;4.90;99.90;;;;;;5041297;28;20033;-64
2022/11/12 00:41:57;;;;;;;13.48;8.40;;;4.70;99.90;;;;;;5027806;28;20436;-65
2022/11/12 00:44:23;;;;;;;15.07;7.75;;;4.60;99.90;;;;;;5028559;28;20477;-65
2022/11/12 00:46:48;;;;;;;11.55;7.53;;;4.50;99.90;;;;;;5038278;28;20110;-64
2022/11/12 00:49:14;;;;;;;11.85;7.20;;;4.40;99.90;;;;;;5030526;28;20045;-64
2022/11/12 00:51:40;;;;;;;13.75;7.95;;;4.40;99.90;;;;;;5030581;28;20041;-64
2022/11/12 00:54:06;;;;;;;16.15;8.57;;;4.40;99.90;;;;;;5041167;28;20033;-64
2022/11/12 00:56:32;;;;;;;19.20;10.30;;;4.40;99.90;;;;;;5039397;28;20096;-65
2022/11/12 00:58:58;;;;;;;17.48;9.30;;;4.50;99.90;;;;;;5027175;28;20463;-64
2022/11/12 01:01:24;;;;;;;15.02;9.68;;;4.50;99.90;;;;;;5027754;28;20155;-64
2022/11/12 01:03:49;;;;;;;16.40;8.63;;;4.50;99.90;;;;;;5021759;28;20037;-65
2022/11/12 01:06:18;;;;;;;17.42;10.02;;;4.50;99.90;;;;;;5017900;28;20053;-65
2022/11/12 01:08:45;;;;;;;17.77;10.48;;;4.50;99.90;;;;;;5021066;28;20431;-65
2022/11/12 01:11:17;;;;;;;21.63;12.43;;;4.60;99.90;;;;;;5028778;28;21137;-64
2022/11/12 01:13:45;;;;;;;21.08;11.52;;;4.60;99.90;;;;;;5029214;28;20389;-64
2022/11/12 01:16:18;;;;;;;19.27;11.18;;;4.60;99.90;;;;;;5033769;28;20037;-64
2022/11/12 01:18:44;;;;;;;21.08;12.15;;;4.70;99.90;;;;;;5028831;28;20029;-64
2022/11/12 01:21:10;;;;;;;27.02;14.43;;;4.60;99.90;;;;;;5028066;28;20393;-64
2022/11/12 01:23:38;;;;;;;23.65;14.15;;;4.60;99.90;;;;;;5029713;28;20049;-65
2022/11/12 01:26:05;;;;;;;22.42;13.65;;;4.70;99.90;;;;;;5038642;28;20048;-65
2022/11/12 01:28:31;;;;;;;22.70;13.40;;;4.70;99.90;;;;;;5027885;28;20067;-65
2022/11/12 01:30:57;;;;;;;32.67;16.38;;;4.80;99.90;;;;;;5027976;28;20045;-64
2022/11/12 01:33:22;;;;;;;25.77;14.20;;;4.90;99.90;;;;;;5029424;28;20037;-65
2022/11/12 01:35:48;;;;;;;30.25;13.80;;;4.80;99.90;;;;;;5029762;28;20040;-65
2022/11/12 01:38:13;;;;;;;23.00;12.80;;;4.80;99.90;;;;;;5030735;28;20038;-65
2022/11/12 01:40:39;;;;;;;25.02;13.15;;;4.70;99.90;;;;;;5045376;28;20401;-65
2022/11/12 01:43:12;;;;;;;25.67;13.90;;;4.80;99.90;;;;;;5038629;28;20362;-64
2022/11/12 01:45:41;;;;;;;27.45;14.98;;;4.80;99.90;;;;;;5029475;28;20092;-65
2022/11/12 01:48:22;;;;;;;26.70;14.73;;;4.80;99.90;;;;;;5032494;28;20056;-64
2022/11/12 01:50:48;;;;;;;25.60;15.02;;;4.80;99.90;;;;;;5032863;28;20061;-65
2022/11/12 01:53:13;;;;;;;31.50;15.63;;;4.80;99.90;;;;;;5029596;28;20037;-65
2022/11/12 01:55:39;;;;;;;27.73;15.13;;;4.90;99.90;;;;;;5028677;28;20355;-65
2022/11/12 01:58:10;;;;;;;26.17;14.98;;;4.90;99.90;;;;;;5028356;28;20037;-65
2022/11/12 02:00:36;;;;;;;;;;;5.00;99.90;;;;;;5027832;28;20049;-65
2022/11/12 02:03:06;;;;;;;28.20;16.92;;;5.10;99.90;;;;;;5032135;28;19916;-65
2022/11/12 02:05:34;;;;;;;28.27;16.40;;;5.10;99.90;;;;;;5030460;28;20524;-65
2022/11/12 02:08:01;;;;;;;36.83;19.25;;;5.10;99.90;;;;;;5035333;28;20045;-65
2022/11/12 02:10:27;;;;;;;29.15;17.17;;;5.10;99.90;;;;;;5041260;28;20080;-65
2022/11/12 02:15:39;;;;;;;30.17;17.10;;;5.20;99.90;;;;;;5031158;28;20488;-65
2022/11/12 02:18:05;;;;;;;34.78;17.15;;;5.10;99.90;;;;;;5037800;28;20045;-65
2022/11/12 02:20:35;;;;;;;40.47;20.08;;;5.10;99.90;;;;;;5025353;28;20038;-65
2022/11/12 02:23:01;;;;;;;30.80;17.92;;;5.20;99.90;;;;;;5032918;28;20033;-65
2022/11/12 02:25:27;;;;;;;30.30;17.50;;;5.10;99.90;;;;;;5027009;28;20049;-65
2022/11/12 02:27:55;;;;;;;27.15;16.42;;;5.20;99.90;;;;;;5033163;28;20504;-64
2022/11/12 02:30:56;;;;;;;31.58;16.85;;;5.10;99.90;;;;;;5032222;28;20069;-65
2022/11/12 02:33:21;;;;;;;27.23;17.17;;;5.10;99.90;;;;;;5033484;28;20044;-65
2022/11/12 02:35:47;;;;;;;36.08;17.63;;;5.10;99.90;;;;;;5034306;28;20397;-64
2022/11/12 02:38:12;;;;;;;31.48;17.67;;;5.10;99.90;;;;;;5027129;28;20080;-65
2022/11/12 02:40:38;;;;;;;28.90;16.20;;;5.10;99.90;;;;;;5026563;28;20048;-65
2022/11/12 02:43:04;;;;;;;33.60;18.00;;;5.00;99.90;;;;;;5040168;28;20375;-65
2022/11/12 02:45:30;;;;;;;28.90;16.50;;;5.00;99.90;;;;;;5030492;28;20385;-65
2022/11/12 02:47:56;;;;;;;30.27;17.30;;;5.00;99.90;;;;;;5033416;28;20037;-65
2022/11/12 02:50:22;;;;;;;35.55;16.50;;;4.90;99.90;;;;;;5026891;28;20038;-65
2022/11/12 02:52:48;;;;;;;28.88;16.30;;;4.90;99.90;;;;;;5025718;28;20038;-65
2022/11/12 02:55:13;;;;;;;23.85;15.38;;;4.90;99.90;;;;;;5030907;28;20029;-64
2022/11/12 02:57:39;;;;;;;26.63;14.00;;;4.80;99.90;;;;;;5031331;28;20040;-65
2022/11/12 03:00:08;;;;;;;25.85;14.13;;;4.70;99.90;;;;;;5029832;28;20087;-65
2022/11/12 03:02:41;;;;;;;20.58;13.20;;;4.70;99.90;;;;;;5027692;28;20048;-65
2022/11/12 03:05:11;;;;;;;25.77;13.27;;;4.60;99.90;;;;;;5025104;28;20111;-65
2022/11/12 03:07:36;;;;;;;28.15;13.05;;;4.60;99.90;;;;;;5027145;28;20037;-64
2022/11/12 03:10:03;;;;;;;20.08;12.05;;;4.50;99.90;;;;;;5043112;28;20124;-64
2022/11/12 03:12:30;;;;;;;15.00;9.77;;;4.40;99.90;;;;;;5033731;28;20068;-65
2022/11/12 03:14:56;;;;;;;15.73;9.95;;;4.30;99.90;;;;;;5032666;28;20036;-65
2022/11/12 03:17:22;;;;;;;15.15;10.93;;;4.10;99.90;;;;;;5042639;28;20448;-64
2022/11/12 03:19:47;;;;;;;15.38;10.13;;;4.00;99.90;;;;;;5043596;28;20083;-64
2022/11/12 03:22:13;;;;;;;17.25;10.40;;;4.10;99.90;;;;;;5031011;28;20033;-64
2022/11/12 03:24:38;;;;;;;14.50;10.35;;;4.00;99.90;;;;;;5040377;28;20036;-64
2022/11/12 03:27:04;;;;;;;15.18;10.02;;;3.90;99.90;;;;;;5033991;28;20049;-64
2022/11/12 03:29:29;;;;;;;21.25;9.40;;;3.80;99.90;;;;;;5031207;28;20045;-65
2022/11/12 03:31:55;;;;;;;13.98;9.07;;;3.70;99.90;;;;;;5031008;28;20033;-64
2022/11/12 03:34:20;;;;;;;14.40;9.10;;;3.60;99.90;;;;;;5036585;28;20079;-65
2022/11/12 03:36:46;;;;;;;13.30;9.77;;;3.60;99.90;;;;;;5033974;28;20029;-65
2022/11/12 03:39:11;;;;;;;14.23;9.82;;;3.60;99.90;;;;;;5029902;28;20037;-65
2022/11/12 03:41:37;;;;;;;12.18;9.00;;;3.60;99.90;;;;;;5032201;28;20041;-65
2022/11/12 03:44:03;;;;;;;12.93;9.32;;;3.50;99.90;;;;;;5029701;28;20048;-64
2022/11/12 03:46:28;;;;;;;12.63;9.85;;;3.50;99.90;;;;;;5040974;28;20457;-65
2022/11/12 03:48:54;;;;;;;15.10;10.15;;;3.40;99.90;;;;;;5034752;28;20107;-64
2022/11/12 03:51:20;;;;;;;14.63;9.68;;;3.40;99.90;;;;;;5053749;28;20046;-65
2022/11/12 03:53:45;;;;;;;12.40;8.77;;;3.40;99.90;;;;;;5035279;28;20048;-65
2022/11/12 03:56:11;;;;;;;13.25;9.18;;;3.40;99.90;;;;;;5026245;28;20037;-64
2022/11/12 03:58:36;;;;;;;15.63;10.02;;;3.40;99.90;;;;;;5029750;28;20048;-64
2022/11/12 04:01:02;;;;;;;16.27;10.50;;;3.40;99.90;;;;;;5032690;28;20498;-64
2022/11/12 04:03:28;;;;;;;15.93;11.32;;;3.50;99.90;;;;;;5044789;28;20538;-64
2022/11/12 04:08:38;;;;;;;19.13;11.18;;;3.60;99.90;;;;;;5036427;28;20044;-65
2022/11/12 04:11:08;;;;;;;17.40;11.00;;;3.50;99.90;;;;;;5043789;28;20041;-65
2022/11/12 04:13:37;;;;;;;14.57;9.95;;;3.50;99.90;;;;;;5031749;28;20041;-64
2022/11/12 04:21:50;;;;;;;12.30;8.77;;;3.30;99.90;;;;;;5029267;28;20041;-65
2022/11/12 04:27:01;;;;;;;17.75;9.70;;;3.20;99.90;;;;;;5027742;28;20037;-64
2022/11/12 04:32:11;;;;;;;15.50;10.20;;;3.10;99.90;;;;;;5028608;28;20481;-65
2022/11/12 04:34:37;;;;;;;16.17;10.07;;;3.10;99.90;;;;;;5035756;28;20114;-64
2022/11/12 04:37:04;;;;;;;19.20;11.48;;;3.10;99.90;;;;;;5031472;28;20838;-64
2022/11/12 04:39:30;;;;;;;17.73;11.05;;;3.10;99.90;;;;;;5029214;28;20037;-65
2022/11/12 04:47:21;;;;;;;11.25;8.38;;;3.20;99.90;;;;;;5033584;28;20818;-64
2022/11/12 04:49:47;;;;;;;10.25;7.47;;;3.20;99.90;;;;;;5030928;28;20047;-64
2022/11/12 04:52:12;;;;;;;12.88;9.15;;;3.10;99.90;;;;;;5034469;28;20037;-64
2022/11/12 04:54:38;;;;;;;14.35;8.98;;;3.10;99.90;;;;;;5034330;28;20046;-64
2022/11/12 04:57:04;;;;;;;17.67;9.52;;;3.00;99.90;;;;;;5029253;28;20132;-64
2022/11/12 04:59:29;;;;;;;14.60;8.93;;;2.90;99.90;;;;;;5032114;28;20041;-64
2022/11/12 05:01:55;;;;;;;11.88;8.57;;;2.90;99.90;;;;;;5029234;28;20068;-64
2022/11/12 05:04:20;;;;;;;11.10;8.45;;;2.90;99.90;;;;;;5021336;28;20056;-65
2022/11/12 05:06:53;;;;;;;11.27;8.13;;;2.80;99.90;;;;;;5014659;28;20049;-65
2022/11/12 05:09:24;;;;;;;13.05;10.10;;;2.90;99.90;;;;;;5025082;28;20037;-64
2022/11/12 05:11:50;;;;;;;13.43;9.63;;;2.90;99.90;;;;;;5032452;28;20494;-65
2022/11/12 05:14:16;;;;;;;18.40;11.30;;;3.00;99.90;;;;;;5041341;28;20037;-64
2022/11/12 05:16:42;;;;;;;15.15;9.70;;;3.10;99.90;;;;;;5030741;28;20044;-64
2022/11/12 05:19:08;;;;;;;16.52;9.90;;;3.20;99.90;;;;;;5026808;28;20397;-65
2022/11/12 05:24:18;;;;;;;10.45;8.60;;;3.20;99.90;;;;;;5031898;28;20513;-65
2022/11/12 05:26:43;;;;;;;12.65;8.00;;;3.10;99.90;;;;;;5038082;28;20060;-65
2022/11/12 05:29:09;;;;;;;11.23;7.45;;;3.00;99.90;;;;;;5032065;28;20408;-64
2022/11/12 05:31:34;;;;;;;11.48;7.30;;;3.00;99.90;;;;;;5029856;28;20056;-64
2022/11/12 05:34:00;;;;;;;30.45;8.30;;;2.90;99.90;;;;;;5039806;28;20448;-65
2022/11/12 05:36:26;;;;;;;43.13;7.70;;;2.80;99.90;;;;;;5033069;28;20033;-65
2022/11/12 05:38:51;;;;;;;24.17;8.25;;;2.80;99.90;;;;;;5038137;28;20374;-64
2022/11/12 05:41:17;;;;;;;11.05;7.25;;;2.80;99.90;;;;;;5043072;28;20063;-64
2022/11/12 05:43:42;;;;;;;11.77;6.72;;;2.70;99.90;;;;;;5042636;28;20118;-64
2022/11/12 05:46:08;;;;;;;11.35;7.55;;;2.70;99.90;;;;;;5036459;28;20045;-64
2022/11/12 05:48:34;;;;;;;10.30;7.50;;;2.70;99.90;;;;;;5041377;28;20033;-64
2022/11/12 05:50:59;;;;;;;12.60;7.82;;;2.80;99.90;;;;;;5029014;28;20037;-64
2022/11/12 05:53:25;;;;;;;12.15;7.80;;;2.80;99.90;;;;;;5037774;28;20125;-65
2022/11/12 05:55:50;;;;;;;8.73;6.45;;;2.80;99.90;;;;;;5034631;28;20080;-65
2022/11/12 05:58:16;;;;;;;11.07;7.00;;;2.80;99.90;;;;;;5043201;28;20507;-65
2022/11/12 06:00:41;;;;;;;10.23;7.32;;;2.80;99.90;;;;;;5026972;28;20048;-65
2022/11/12 06:03:08;;;;;;;12.70;7.28;;;2.70;99.90;;;;;;5030421;28;20045;-65
2022/11/12 06:05:34;;;;;;;11.73;7.88;;;2.70;99.90;;;;;;5032437;28;20080;-65
2022/11/12 06:08:01;;;;;;;11.88;7.53;;;2.70;99.90;;;;;;5039766;28;20429;-64
2022/11/12 06:10:27;;;;;;;8.48;6.22;;;2.80;99.90;;;;;;5032242;28;20050;-64
2022/11/12 06:12:53;;;;;;;5.53;4.93;;;2.70;99.90;;;;;;5027743;28;21807;-65
2022/11/12 06:15:18;;;;;;;8.90;5.78;;;2.60;99.90;;;;;;5038210;28;20553;-65
2022/11/12 06:17:44;;;;;;;7.55;5.45;;;2.50;99.90;;;;;;5032071;28;20041;-64
2022/11/12 06:20:10;;;;;;;7.03;5.53;;;2.50;99.90;;;;;;5038311;28;20512;-64
2022/11/12 06:22:36;;;;;;;10.63;5.20;;;2.40;99.90;;;;;;5041688;28;20036;-65
2022/11/12 06:25:02;;;;;;;13.88;5.90;;;2.30;99.90;;;;;;5038632;28;20052;-64
2022/11/12 06:27:28;;;;;;;19.33;5.20;;;2.30;99.90;;;;;;5030965;28;20111;-64
2022/11/12 06:29:53;;;;;;;19.23;5.80;;;2.20;99.90;;;;;;5034835;28;20083;-64
2022/11/12 06:32:19;;;;;;;23.02;5.57;;;2.10;99.90;;;;;;5042192;28;20063;-65
2022/11/12 06:34:45;;;;;;;20.38;5.53;;;2.10;99.90;;;;;;5040245;28;20037;-64
2022/11/12 06:37:10;;;;;;;86.57;10.05;;;2.00;99.90;;;;;;5035713;28;20044;-64
2022/11/12 06:39:36;;;;;;;87.03;10.32;;;2.00;99.90;;;;;;5037567;28;20033;-64
2022/11/12 06:42:01;;;;;;;50.72;8.77;;;2.00;99.90;;;;;;5040364;28;20035;-64
2022/11/12 06:44:27;;;;;;;23.85;7.50;;;2.00;99.90;;;;;;5040046;28;20068;-64
2022/11/12 06:46:53;;;;;;;9.18;6.03;;;2.00;99.90;;;;;;5045094;28;20041;-64
2022/11/12 06:49:18;;;;;;;8.32;5.38;;;2.00;99.90;;;;;;5045587;28;20052;-64
2022/11/12 06:51:44;;;;;;;12.50;6.30;;;2.00;99.90;;;;;;5039058;28;20038;-65
2022/11/12 06:54:10;;;;;;;6.78;4.90;;;2.10;99.90;;;;;;5038439;28;20045;-64
2022/11/12 06:56:35;;;;;;;7.55;6.05;;;2.10;99.90;;;;;;5032179;28;20044;-64
2022/11/12 06:59:01;;;;;;;11.90;6.20;;;2.00;99.90;;;;;;5054675;28;20040;-64
2022/11/12 07:01:27;;;;;;;9.00;6.07;;;1.90;99.90;;;;;;5041008;28;20477;-65
2022/11/12 07:03:53;;;;;;;9.98;6.03;;;2.00;99.90;;;;;;5032181;28;20069;-64
2022/11/12 07:06:19;;;;;;;9.82;5.78;;;2.00;99.90;;;;;;5033114;28;20057;-64
2022/11/12 07:08:49;;;;;;;11.93;5.40;;;2.00;99.90;;;;;;5033577;28;20056;-65
2022/11/12 07:11:16;;;;;;;14.57;5.75;;;2.00;99.90;;;;;;5033917;28;20649;-64
2022/11/12 07:13:45;;;;;;;6.75;5.05;;;2.00;99.90;;;;;;5034056;28;20417;-65
2022/11/12 07:16:12;;;;;;;19.25;6.13;;;2.00;99.90;;;;;;5034559;28;20036;-65
2022/11/12 07:18:38;;;;;;;16.98;5.65;;;2.10;99.90;;;;;;5045684;28;20047;-65
2022/11/12 07:21:06;;;;;;;30.70;7.40;;;2.20;99.90;;;;;;5037818;28;20156;-65
2022/11/12 07:23:33;;;;;;;40.15;7.88;;;2.40;99.90;;;;;;5039051;28;20039;-65
2022/11/12 07:26:01;;;;;;;18.60;7.20;;;2.50;99.90;;;;;;5043022;28;20485;-65
2022/11/12 07:28:27;;;;;;;20.80;6.75;;;2.60;99.90;;;;;;5038122;28;20091;-65
2022/11/12 07:30:57;;;;;;;12.40;7.60;;;2.70;99.90;;;;;;5044787;28;20045;-65
2022/11/12 07:33:23;;;;;;;10.18;6.45;;;2.80;99.90;;;;;;5052571;28;20029;-65
2022/11/12 07:35:59;;;;;;;10.02;6.82;;;2.90;99.90;;;;;;5044226;28;20044;-65
2022/11/12 07:38:25;;;;;;;10.07;6.70;;;2.90;99.90;;;;;;5033653;28;20492;-65
2022/11/12 07:40:50;;;;;;;9.35;6.85;;;3.00;99.90;;;;;;5044297;28;20033;-65
2022/11/12 07:43:16;;;;;;;10.00;7.15;;;3.10;99.90;;;;;;5040843;28;20523;-64
2022/11/12 07:45:41;;;;;;;12.23;8.15;;;3.20;99.90;;;;;;5037282;28;20041;-65
2022/11/12 07:48:07;;;;;;;11.93;7.72;;;3.30;99.90;;;;;;5030496;28;20033;-65
2022/11/12 07:50:33;;;;;;;12.07;7.50;;;3.40;99.90;;;;;;5032417;28;20124;-65
2022/11/12 07:52:59;;;;;;;10.98;7.32;;;3.50;99.90;;;;;;5034368;28;20125;-65
2022/11/12 07:55:24;;;;;;;12.70;8.10;;;3.60;99.90;;;;;;5043582;28;20493;-65
2022/11/12 07:57:50;;;;;;;13.45;8.73;;;3.70;99.90;;;;;;5043038;28;20075;-64
2022/11/12 08:00:16;;;;;;;11.30;8.90;;;3.80;99.90;;;;;;5035658;28;20052;-64
2022/11/12 08:02:41;;;;;;;13.25;8.88;;;3.90;99.90;;;;;;5031234;28;20134;-65
2022/11/12 08:05:07;;;;;;;15.90;10.95;;;4.00;99.90;;;;;;5032943;28;20069;-65
2022/11/12 08:07:32;;;;;;;14.57;9.65;;;4.10;99.90;;;;;;5030482;28;20041;-64
2022/11/12 08:09:58;;;;;;;15.35;10.18;;;4.20;99.90;;;;;;5030569;28;20048;-64
2022/11/12 08:12:23;;;;;;;19.55;10.80;;;4.30;99.90;;;;;;5030559;28;20783;-64
2022/11/12 08:14:49;;;;;;;18.15;11.20;;;4.40;99.90;;;;;;5031034;28;20383;-64
2022/11/12 08:17:15;;;;;;;13.10;8.75;;;4.50;99.90;;;;;;5028237;28;20071;-64
2022/11/12 08:19:40;;;;;;;16.38;10.18;;;4.70;99.90;;;;;;5034112;28;20052;-65
2022/11/12 08:22:06;;;;;;;15.75;10.02;;;4.70;99.90;;;;;;5042835;28;20037;-64
2022/11/12 08:24:31;;;;;;;15.73;10.15;;;4.80;99.90;;;;;;5031331;28;20099;-64
2022/11/12 08:26:57;;;;;;;14.82;10.35;;;4.90;99.90;;;;;;5032406;28;20470;-65
2022/11/12 08:29:23;;;;;;;14.95;9.75;;;5.00;99.90;;;;;;5033925;28;20088;-65
2022/11/12 08:31:48;;;;;;;16.27;10.05;;;5.10;99.90;;;;;;5048392;28;20072;-65
2022/11/12 08:34:14;;;;;;;18.80;11.40;;;5.30;99.90;;;;;;5042858;28;20041;-64
2022/11/12 08:36:40;;;;;;;16.95;11.40;;;5.30;99.90;;;;;;5042694;28;20041;-64
2022/11/12 08:39:06;;;;;;;17.65;11.15;;;5.50;99.90;;;;;;5043019;28;20060;-65
2022/11/12 08:41:32;;;;;;;20.10;11.98;;;5.60;99.90;;;;;;5046031;28;20040;-64
2022/11/12 08:43:58;;;;;;;25.73;14.25;;;5.70;99.90;;;;;;5028786;28;20599;-65
2022/11/12 08:46:24;;;;;;;20.92;12.95;;;5.80;99.90;;;;;;5034973;28;20045;-64
2022/11/12 08:48:49;;;;;;;18.40;11.45;;;5.90;99.90;;;;;;5039753;28;20500;-64
2022/11/12 08:51:15;;;;;;;16.25;11.10;;;5.90;99.90;;;;;;5034764;28;20048;-64
2022/11/12 08:53:40;;;;;;;16.05;11.30;;;6.00;99.90;;;;;;5032839;28;20044;-65
2022/11/12 08:56:06;;;;;;;15.10;10.55;;;6.00;99.90;;;;;;5044304;28;20487;-64
2022/11/12 08:58:32;;;;;;;16.50;11.52;;;6.00;99.90;;;;;;5039430;28;20088;-64
2022/11/12 09:01:04;;;;;;;16.25;9.45;;;6.00;99.90;;;;;;5037178;28;20037;-64
2022/11/12 09:03:29;;;;;;;14.40;10.20;;;6.10;99.90;;;;;;5033060;28;20528;-64
2022/11/12 09:05:55;;;;;;;15.77;9.40;;;6.10;99.90;;;;;;5039952;28;20077;-64
2022/11/12 09:08:22;;;;;;;17.02;10.38;;;6.20;99.90;;;;;;5047556;28;20045;-64
2022/11/12 09:10:49;;;;;;;20.17;11.30;;;6.20;99.90;;;;;;5033461;28;20501;-65
2022/11/12 09:13:16;;;;;;;16.77;10.95;;;6.20;99.90;;;;;;5038302;28;20061;-64
2022/11/12 09:15:42;;;;;;;17.92;11.25;;;6.10;99.90;;;;;;5030892;28;20034;-65
2022/11/12 09:18:12;;;;;;;17.42;11.77;;;6.20;99.90;;;;;;5031713;28;20072;-64
2022/11/12 09:20:37;;;;;;;18.00;12.15;;;6.20;99.90;;;;;;5030655;28;20044;-64
2022/11/12 09:23:09;;;;;;;18.02;12.55;;;6.20;99.90;;;;;;5030740;28;20041;-64
2022/11/12 09:25:35;;;;;;;20.10;12.77;;;6.20;99.90;;;;;;5031252;28;20041;-65
2022/11/12 09:28:16;;;;;;;19.33;12.52;;;6.30;99.90;;;;;;5031011;28;20492;-64
2022/11/12 09:30:47;;;;;;;18.27;12.98;;;6.40;99.90;;;;;;5038578;28;20085;-65
2022/11/12 09:33:21;;;;;;;19.02;13.07;;;6.50;99.90;;;;;;5030095;28;20068;-65
2022/11/12 09:35:48;;;;;;;22.00;13.77;;;6.50;99.90;;;;;;5029917;28;20124;-64
2022/11/12 09:38:14;;;;;;;22.10;14.32;;;6.50;99.90;;;;;;5031259;28;20037;-65
2022/11/12 09:40:52;;;;;;;20.38;13.73;;;6.60;99.90;;;;;;5029350;28;20045;-64
2022/11/12 09:43:31;;;;;;;23.50;15.07;;;6.60;99.90;;;;;;5029693;28;20041;-64
2022/11/12 09:46:05;;;;;;;23.40;14.32;;;6.70;99.90;;;;;;5030628;28;20060;-64
2022/11/12 09:48:41;;;;;;;21.13;14.13;;;6.80;99.90;;;;;;5033345;28;20040;-64
2022/11/12 09:51:20;;;;;;;21.10;14.38;;;6.80;99.90;;;;;;5031724;28;20060;-64
2022/11/12 09:54:03;;;;;;;24.58;15.15;;;6.90;99.90;;;;;;5035108;28;20045;-64
2022/11/12 09:56:29;;;;;;;20.00;13.45;;;7.00;99.90;;;;;;5038030;28;20481;-64
2022/11/12 09:58:55;;;;;;;21.77;13.60;;;7.10;99.90;;;;;;5032563;28;20033;-64
2022/11/12 10:01:48;;;;;;;23.42;14.27;;;7.10;99.90;;;;;;5027643;28;20508;-64
2022/11/12 10:04:35;;;;;;;21.20;14.27;;;7.10;99.90;;;;;;5029049;28;20116;-65
2022/11/12 10:07:21;;;;;;;22.02;13.65;;;7.20;99.90;;;;;;5030194;28;20508;-64
2022/11/12 10:10:00;;;;;;;18.95;13.35;;;7.20;99.90;;;;;;5030340;28;20045;-64
2022/11/12 10:12:32;;;;;;;22.35;14.32;;;7.30;99.90;;;;;;5040117;28;20080;-64
2022/11/12 10:18:23;;;;;;;23.15;14.38;;;7.30;99.90;;;;;;5031536;28;20038;-65
2022/11/12 10:21:03;;;;;;;21.30;14.90;;;7.50;99.90;;;;;;5036988;28;20041;-65
2022/11/12 10:23:39;;;;;;;23.83;14.27;;;7.60;99.90;;;;;;5043313;28;20036;-65
2022/11/12 10:26:14;;;;;;;24.50;15.18;;;7.70;99.90;;;;;;5042317;28;20446;-64
2022/11/12 10:29:01;;;;;;;25.15;15.40;;;7.90;99.90;;;;;;5047808;28;20047;-65
2022/11/12 10:31:27;;;;;;;29.20;15.48;;;8.00;99.90;;;;;;5045691;28;20045;-64
2022/11/12 10:34:19;;;;;;;22.00;15.75;;;8.10;99.90;;;;;;5052271;28;20029;-64
2022/11/12 10:36:50;;;;;;;22.23;14.93;;;8.20;99.90;;;;;;5040199;28;20046;-65
2022/11/12 10:39:35;;;;;;;24.73;15.15;;;8.30;99.90;;;;;;5035030;28;20064;-64
2022/11/12 10:42:08;;;;;;;23.77;14.50;;;8.40;99.90;;;;;;5034807;28;20117;-65
2022/11/12 10:44:34;;;;;;;24.30;15.90;;;8.50;99.90;;;;;;5035152;28;20037;-65
2022/11/12 10:47:21;;;;;;;22.73;14.55;;;8.50;99.90;;;;;;5034612;28;20042;-65
2022/11/12 10:50:18;;;;;;;21.30;14.98;;;8.60;99.90;;;;;;5051818;28;20085;-64
2022/11/12 10:52:56;;;;;;;21.33;13.55;;;8.60;99.90;;;;;;5052163;28;20388;-64
2022/11/12 10:55:27;;;;;;;22.23;14.63;;;8.50;99.90;;;;;;5040423;28;20099;-64
2022/11/12 10:58:13;;;;;;;20.05;14.35;;;8.50;99.90;;;;;;5040401;28;20064;-64
2022/11/12 11:01:01;;;;;;;24.08;15.05;;;8.50;99.90;;;;;;5044892;28;20037;-65
2022/11/12 11:03:34;;;;;;;24.80;14.00;;;8.40;99.90;;;;;;5044708;28;20056;-64
2022/11/12 11:06:04;;;;;;;22.20;14.50;;;8.50;99.90;;;;;;5045285;28;20064;-64
2022/11/12 11:08:41;;;;;;;23.75;14.10;;;8.50;99.90;;;;;;5049399;28;20045;-64
2022/11/12 11:11:17;;;;;;;25.10;15.40;;;8.60;99.90;;;;;;5037019;28;20037;-64
2022/11/12 11:13:43;;;;;;;22.50;15.35;;;8.70;99.90;;;;;;5035548;28;20187;-65
2022/11/12 11:16:21;;;;;;;24.05;15.60;;;8.80;99.90;;;;;;5039555;28;20048;-64
2022/11/12 11:18:53;;;;;;;23.92;15.25;;;8.90;99.90;;;;;;5046110;28;20102;-65
2022/11/12 11:21:44;;;;;;;23.52;15.35;;;9.10;99.90;;;;;;5031931;28;20516;-65
2022/11/12 11:24:28;;;;;;;25.20;14.52;;;9.20;99.90;;;;;;5032845;28;20056;-65
2022/11/12 11:27:14;;;;;;;23.98;14.25;;;9.30;99.90;;;;;;5041472;28;20039;-65
2022/11/12 11:30:00;;;;;;;20.98;15.07;;;9.60;99.90;;;;;;5049546;28;20499;-65
2022/11/12 11:32:34;;;;;;;23.90;15.13;;;9.80;99.90;;;;;;5045972;28;20045;-65
2022/11/12 11:35:12;;;;;;;21.30;13.43;;;10.00;99.90;;;;;;5037115;28;20501;-64
2022/11/12 11:38:13;;;;;;;20.05;14.02;;;10.10;99.90;;;;;;5052750;28;20037;-65
2022/11/12 11:40:51;;;;;;;21.67;13.65;;;10.20;99.90;;;;;;5045613;28;20079;-65
2022/11/12 11:43:26;;;;;;;22.98;14.60;;;10.30;99.90;;;;;;5032213;28;20041;-64
2022/11/12 11:46:21;;;;;;;19.98;14.40;;;10.40;99.90;;;;;;5046481;28;20045;-64
2022/11/12 11:49:23;;;;;;;18.48;13.27;;;10.40;99.90;;;;;;5043526;28;20385;-65
2022/11/12 11:51:55;;;;;;;18.17;13.15;;;10.50;99.90;;;;;;5032995;28;20107;-65
2022/11/12 11:54:57;;;;;;;21.13;13.43;;;10.50;99.90;;;;;;5039772;28;20151;-65
2022/11/12 11:57:41;;;;;;;22.27;12.55;;;10.60;99.90;;;;;;5041303;28;20080;-64
2022/11/12 12:00:18;;;;;;;21.13;12.80;;;10.70;99.90;;;;;;5032598;28;20053;-65
2022/11/12 12:02:51;;;;;;;19.58;12.30;;;10.80;99.90;;;;;;5037552;28;20080;-64
2022/11/12 12:05:51;;;;;;;20.08;12.68;;;10.90;99.90;;;;;;5030908;28;20059;-65
2022/11/12 12:08:35;;;;;;;19.10;12.60;;;10.90;99.90;;;;;;5034256;28;20048;-64
2022/11/12 12:11:10;;;;;;;19.95;12.75;;;11.00;99.90;;;;;;5043382;28;21368;-64
2022/11/12 12:14:02;;;;;;;18.52;12.82;;;11.10;99.90;;;;;;5035025;28;20048;-65
2022/11/12 12:16:35;;;;;;;20.90;13.00;;;11.20;99.90;;;;;;5032728;28;20048;-65
2022/11/12 12:19:42;;;;;;;17.73;12.43;;;11.40;99.90;;;;;;5029946;28;20157;-64
2022/11/12 12:22:17;;;;;;;19.48;12.25;;;11.40;99.90;;;;;;5029183;28;20048;-64
2022/11/12 12:24:54;;;;;;;22.38;13.27;;;11.40;99.90;;;;;;5047042;28;20073;-65
2022/11/12 12:27:24;;;;;;;18.83;11.75;;;11.50;99.90;;;;;;5032410;28;20045;-65
2022/11/12 12:30:00;;;;;;;19.00;11.48;;;11.40;99.90;;;;;;5044578;28;20037;-64
2022/11/12 12:32:38;;;;;;;18.50;12.10;;;11.40;99.90;;;;;;5045290;28;20060;-66
2022/11/12 12:35:33;;;;;;;16.55;11.43;;;11.40;99.90;;;;;;5031937;28;20719;-65
2022/11/12 12:38:04;;;;;;;17.15;11.05;;;11.40;99.90;;;;;;5035973;28;20045;-65
2022/11/12 12:40:40;;;;;;;16.85;11.13;;;11.40;99.90;;;;;;5035963;28;20041;-64
2022/11/12 12:43:28;;;;;;;20.77;11.77;;;11.40;99.90;;;;;;5030383;28;20080;-65
2022/11/12 12:45:56;;;;;;;17.80;10.20;;;11.40;99.90;;;;;;5040336;28;20044;-65
2022/11/12 12:48:30;;;;;;;15.95;10.60;;;11.40;99.90;;;;;;5046294;28;20127;-65
2022/11/12 12:50:56;;;;;;;15.75;10.43;;;11.50;99.90;;;;;;5032253;28;20131;-65
2022/11/12 12:53:27;;;;;;;14.80;10.20;;;11.50;99.90;;;;;;5045398;28;20087;-65
2022/11/12 12:55:59;;;;;;;14.90;9.73;;;11.60;99.90;;;;;;5040675;28;20508;-65
2022/11/12 12:58:26;;;;;;;17.63;10.20;;;11.70;99.90;;;;;;5030502;28;20048;-66
2022/11/12 13:00:58;;;;;;;15.45;8.93;;;11.80;99.90;;;;;;5049788;28;20170;-65
2022/11/12 13:03:44;;;;;;;13.38;9.55;;;11.90;99.90;;;;;;5036132;28;20382;-65
2022/11/12 13:06:23;;;;;;;13.38;9.88;;;12.20;99.90;;;;;;5030229;28;20069;-65
2022/11/12 13:09:00;;;;;;;16.13;9.13;;;12.40;99.90;;;;;;5031351;28;20117;-66
2022/11/12 13:14:30;;;;;;;14.50;9.20;;;12.70;99.90;;;;;;5038435;28;20393;-66
2022/11/12 13:17:05;;;;;;;15.85;9.73;;;12.60;99.90;;;;;;5050514;28;20036;-65
2022/11/12 13:19:36;;;;;;;14.10;8.60;;;12.40;99.90;;;;;;5035229;28;20083;-66
2022/11/12 13:22:17;;;;;;;13.23;9.23;;;12.40;99.90;;;;;;5064003;28;20544;-65
2022/11/12 13:25:11;;;;;;;15.65;8.90;;;12.40;99.90;;;;;;5046466;28;20034;-66